sensor_id;sensor_type;location;lat;lon;timestamp;temperature;humidity
4725;DHT22;2376;53.544;10.226;2023-05-29T00:00:22;12.40;99.90
4725;DHT22;2376;53.544;10.226;2023-05-29T00:02:50;12.50;99.90
4725;DHT22;2376;53.544;10.226;2023-05-29T00:05:17;12.40;99.90
4725;DHT22;2376;53.544;10.226;2023-05-29T00:07:44;12.30;99.90
4725;DHT22;2376;53.544;10.226;2023-05-29T00:10:11;12.10;99.90
4725;DHT22;2376;53.544;10.226;2023-05-29T00:12:39;12.10;99.90
4725;DHT22;2376;53.544;10.226;2023-05-29T00:15:07;12.00;99.90
4725;DHT22;2376;53.544;10.226;2023-05-29T00:17:35;12.00;99.90
4725;DHT22;2376;53.544;10.226;2023-05-29T00:20:02;12.00;99.90
4725;DHT22;2376;53.544;10.226;2023-05-29T00:22:32;11.90;99.90
4725;DHT22;2376;53.544;10.226;2023-05-29T00:24:59;11.80;99.90
4725;DHT22;2376;53.544;10.226;2023-05-29T00:27:25;11.80;99.90
4725;DHT22;2376;53.544;10.226;2023-05-29T00:29:53;11.80;99.90
4725;DHT22;2376;53.544;10.226;2023-05-29T00:32:20;11.70;99.90
4725;DHT22;2376;53.544;10.226;2023-05-29T00:34:46;11.60;99.90
4725;DHT22;2376;53.544;10.226;2023-05-29T00:37:13;11.50;99.90
4725;DHT22;2376;53.544;10.226;2023-05-29T00:39:40;11.50;99.90
4725;DHT22;2376;53.544;10.226;2023-05-29T00:42:06;11.50;99.90
4725;DHT22;2376;53.544;10.226;2023-05-29T00:44:33;11.40;99.90
4725;DHT22;2376;53.544;10.226;2023-05-29T00:47:02;11.30;99.90
4725;DHT22;2376;53.544;10.226;2023-05-29T00:49:29;11.20;99.90
4725;DHT22;2376;53.544;10.226;2023-05-29T00:51:56;11.10;99.90
4725;DHT22;2376;53.544;10.226;2023-05-29T00:54:26;11.10;99.90
4725;DHT22;2376;53.544;10.226;2023-05-29T00:56:55;11.00;99.90
4725;DHT22;2376;53.544;10.226;2023-05-29T00:59:23;11.00;99.90
4725;DHT22;2376;53.544;10.226;2023-05-29T01:01:51;10.90;99.90
4725;DHT22;2376;53.544;10.226;2023-05-29T01:04:21;11.00;99.90
4725;DHT22;2376;53.544;10.226;2023-05-29T01:06:49;11.00;99.90
4725;DHT22;2376;53.544;10.226;2023-05-29T01:09:17;10.90;99.90
4725;DHT22;2376;53.544;10.226;2023-05-29T01:11:53;10.90;99.90
4725;DHT22;2376;53.544;10.226;2023-05-29T01:14:25;10.90;99.90
4725;DHT22;2376;53.544;10.226;2023-05-29T01:17:02;10.80;99.90
4725;DHT22;2376;53.544;10.226;2023-05-29T01:19:48;10.70;99.90
4725;DHT22;2376;53.544;10.226;2023-05-29T01:22:39;10.80;99.90
4725;DHT22;2376;53.544;10.226;2023-05-29T01:25:11;10.80;99.90
4725;DHT22;2376;53.544;10.226;2023-05-29T01:27:43;11.00;99.90
4725;DHT22;2376;53.544;10.226;2023-05-29T01:30:14;11.10;99.90
4725;DHT22;2376;53.544;10.226;2023-05-29T01:32:41;10.90;99.90
4725;DHT22;2376;53.544;10.226;2023-05-29T01:35:08;10.90;99.90
4725;DHT22;2376;53.544;10.226;2023-05-29T01:37:35;10.80;99.90
4725;DHT22;2376;53.544;10.226;2023-05-29T01:40:02;10.60;99.90
4725;DHT22;2376;53.544;10.226;2023-05-29T01:42:30;10.60;99.90
4725;DHT22;2376;53.544;10.226;2023-05-29T01:44:58;10.60;99.90
4725;DHT22;2376;53.544;10.226;2023-05-29T01:47:26;10.50;99.90
4725;DHT22;2376;53.544;10.226;2023-05-29T01:49:54;10.30;99.90
4725;DHT22;2376;53.544;10.226;2023-05-29T01:52:21;10.10;99.90
4725;DHT22;2376;53.544;10.226;2023-05-29T01:54:48;10.00;99.90
4725;DHT22;2376;53.544;10.226;2023-05-29T01:57:14;10.00;99.90
4725;DHT22;2376;53.544;10.226;2023-05-29T01:59:41;10.10;99.90
4725;DHT22;2376;53.544;10.226;2023-05-29T02:02:10;9.90;99.90
4725;DHT22;2376;53.544;10.226;2023-05-29T02:04:37;10.00;99.90
4725;DHT22;2376;53.544;10.226;2023-05-29T02:07:04;9.80;99.90
4725;DHT22;2376;53.544;10.226;2023-05-29T02:09:31;9.80;99.90
4725;DHT22;2376;53.544;10.226;2023-05-29T02:11:58;9.90;99.90
4725;DHT22;2376;53.544;10.226;2023-05-29T02:14:26;9.80;99.90
4725;DHT22;2376;53.544;10.226;2023-05-29T02:16:52;9.70;99.90
4725;DHT22;2376;53.544;10.226;2023-05-29T02:19:20;9.70;99.90
4725;DHT22;2376;53.544;10.226;2023-05-29T02:21:50;9.70;99.90
4725;DHT22;2376;53.544;10.226;2023-05-29T02:24:17;9.70;99.90
4725;DHT22;2376;53.544;10.226;2023-05-29T02:26:44;9.90;99.90
4725;DHT22;2376;53.544;10.226;2023-05-29T02:29:10;9.90;99.90
4725;DHT22;2376;53.544;10.226;2023-05-29T02:31:37;10.00;99.90
4725;DHT22;2376;53.544;10.226;2023-05-29T02:34:04;10.10;99.90
4725;DHT22;2376;53.544;10.226;2023-05-29T02:36:32;10.30;99.90
4725;DHT22;2376;53.544;10.226;2023-05-29T02:39:00;10.30;99.90
4725;DHT22;2376;53.544;10.226;2023-05-29T02:41:27;10.40;99.90
4725;DHT22;2376;53.544;10.226;2023-05-29T02:43:54;10.30;99.90
4725;DHT22;2376;53.544;10.226;2023-05-29T02:46:20;10.30;99.90
4725;DHT22;2376;53.544;10.226;2023-05-29T02:48:47;10.30;99.90
4725;DHT22;2376;53.544;10.226;2023-05-29T02:51:14;10.10;99.90
4725;DHT22;2376;53.544;10.226;2023-05-29T02:53:42;10.00;99.90
4725;DHT22;2376;53.544;10.226;2023-05-29T02:56:09;9.90;99.90
4725;DHT22;2376;53.544;10.226;2023-05-29T02:58:35;10.00;99.90
4725;DHT22;2376;53.544;10.226;2023-05-29T03:01:02;10.00;99.90
4725;DHT22;2376;53.544;10.226;2023-05-29T03:03:29;9.90;99.90
4725;DHT22;2376;53.544;10.226;2023-05-29T03:05:56;9.90;99.90
4725;DHT22;2376;53.544;10.226;2023-05-29T03:08:22;10.00;99.90
4725;DHT22;2376;53.544;10.226;2023-05-29T03:10:52;10.00;99.90
4725;DHT22;2376;53.544;10.226;2023-05-29T03:13:19;10.00;99.90
4725;DHT22;2376;53.544;10.226;2023-05-29T03:15:46;10.00;99.90
4725;DHT22;2376;53.544;10.226;2023-05-29T03:18:13;9.80;99.90
4725;DHT22;2376;53.544;10.226;2023-05-29T03:20:40;9.80;99.90
4725;DHT22;2376;53.544;10.226;2023-05-29T03:23:07;9.80;99.90
4725;DHT22;2376;53.544;10.226;2023-05-29T03:25:33;9.80;99.90
4725;DHT22;2376;53.544;10.226;2023-05-29T03:28:02;9.70;99.90
4725;DHT22;2376;53.544;10.226;2023-05-29T03:30:29;9.80;99.90
4725;DHT22;2376;53.544;10.226;2023-05-29T03:32:55;9.90;99.90
4725;DHT22;2376;53.544;10.226;2023-05-29T03:35:22;9.90;99.90
4725;DHT22;2376;53.544;10.226;2023-05-29T03:37:48;9.80;99.90
4725;DHT22;2376;53.544;10.226;2023-05-29T03:40:15;9.90;99.90
4725;DHT22;2376;53.544;10.226;2023-05-29T03:42:42;9.90;99.90
4725;DHT22;2376;53.544;10.226;2023-05-29T03:45:10;9.60;99.90
4725;DHT22;2376;53.544;10.226;2023-05-29T03:47:37;9.60;99.90
4725;DHT22;2376;53.544;10.226;2023-05-29T03:50:05;9.70;99.90
4725;DHT22;2376;53.544;10.226;2023-05-29T03:52:31;9.80;99.90
4725;DHT22;2376;53.544;10.226;2023-05-29T03:54:58;9.90;99.90
4725;DHT22;2376;53.544;10.226;2023-05-29T03:57:25;9.90;99.90
4725;DHT22;2376;53.544;10.226;2023-05-29T03:59:52;9.70;99.90
4725;DHT22;2376;53.544;10.226;2023-05-29T04:02:20;9.80;99.90
4725;DHT22;2376;53.544;10.226;2023-05-29T04:04:47;10.00;99.90
4725;DHT22;2376;53.544;10.226;2023-05-29T04:07:14;9.70;99.90
4725;DHT22;2376;53.544;10.226;2023-05-29T04:09:43;9.70;99.90
4725;DHT22;2376;53.544;10.226;2023-05-29T04:12:09;9.70;99.90
4725;DHT22;2376;53.544;10.226;2023-05-29T04:14:36;9.70;99.90
4725;DHT22;2376;53.544;10.226;2023-05-29T04:17:03;9.80;99.90
4725;DHT22;2376;53.544;10.226;2023-05-29T04:19:31;9.90;99.90
4725;DHT22;2376;53.544;10.226;2023-05-29T04:21:58;9.90;99.90
4725;DHT22;2376;53.544;10.226;2023-05-29T04:24:24;9.70;99.90
4725;DHT22;2376;53.544;10.226;2023-05-29T04:26:51;9.60;99.90
4725;DHT22;2376;53.544;10.226;2023-05-29T04:29:18;9.50;99.90
4725;DHT22;2376;53.544;10.226;2023-05-29T04:31:44;9.80;99.90
4725;DHT22;2376;53.544;10.226;2023-05-29T04:34:12;9.80;99.90
4725;DHT22;2376;53.544;10.226;2023-05-29T04:36:44;9.70;99.90
4725;DHT22;2376;53.544;10.226;2023-05-29T04:39:11;9.70;99.90
4725;DHT22;2376;53.544;10.226;2023-05-29T04:41:39;9.90;99.90
4725;DHT22;2376;53.544;10.226;2023-05-29T04:44:06;9.80;99.90
4725;DHT22;2376;53.544;10.226;2023-05-29T04:46:33;9.80;99.90
4725;DHT22;2376;53.544;10.226;2023-05-29T04:49:00;9.90;99.90
4725;DHT22;2376;53.544;10.226;2023-05-29T04:51:28;9.70;99.90
4725;DHT22;2376;53.544;10.226;2023-05-29T04:53:56;9.60;99.90
4725;DHT22;2376;53.544;10.226;2023-05-29T04:56:23;9.60;99.90
4725;DHT22;2376;53.544;10.226;2023-05-29T04:58:50;9.60;99.90
4725;DHT22;2376;53.544;10.226;2023-05-29T05:01:17;9.50;99.90
4725;DHT22;2376;53.544;10.226;2023-05-29T05:03:44;9.50;99.90
4725;DHT22;2376;53.544;10.226;2023-05-29T05:06:11;9.50;99.90
4725;DHT22;2376;53.544;10.226;2023-05-29T05:08:38;9.50;99.90
4725;DHT22;2376;53.544;10.226;2023-05-29T05:11:06;9.50;99.90
4725;DHT22;2376;53.544;10.226;2023-05-29T05:13:33;9.70;99.90
4725;DHT22;2376;53.544;10.226;2023-05-29T05:16:00;9.70;99.90
4725;DHT22;2376;53.544;10.226;2023-05-29T05:18:27;9.60;99.90
4725;DHT22;2376;53.544;10.226;2023-05-29T05:20:53;9.60;99.90
4725;DHT22;2376;53.544;10.226;2023-05-29T05:23:20;9.80;99.90
4725;DHT22;2376;53.544;10.226;2023-05-29T05:25:47;9.80;99.90
4725;DHT22;2376;53.544;10.226;2023-05-29T05:28:15;9.70;99.90
4725;DHT22;2376;53.544;10.226;2023-05-29T05:30:42;9.70;99.90
4725;DHT22;2376;53.544;10.226;2023-05-29T05:33:08;9.80;99.90
4725;DHT22;2376;53.544;10.226;2023-05-29T05:35:35;9.90;99.90
4725;DHT22;2376;53.544;10.226;2023-05-29T05:38:02;10.00;99.90
4725;DHT22;2376;53.544;10.226;2023-05-29T05:40:29;10.20;99.90
4725;DHT22;2376;53.544;10.226;2023-05-29T05:42:55;10.30;99.90
4725;DHT22;2376;53.544;10.226;2023-05-29T05:45:24;10.30;99.90
4725;DHT22;2376;53.544;10.226;2023-05-29T05:47:50;10.20;99.90
4725;DHT22;2376;53.544;10.226;2023-05-29T05:50:17;10.20;99.90
4725;DHT22;2376;53.544;10.226;2023-05-29T05:52:43;10.10;99.90
4725;DHT22;2376;53.544;10.226;2023-05-29T05:55:10;10.20;99.90
4725;DHT22;2376;53.544;10.226;2023-05-29T05:57:37;10.10;99.90
4725;DHT22;2376;53.544;10.226;2023-05-29T06:00:05;10.30;99.90
4725;DHT22;2376;53.544;10.226;2023-05-29T06:02:38;10.20;99.90
4725;DHT22;2376;53.544;10.226;2023-05-29T06:05:07;10.10;99.90
4725;DHT22;2376;53.544;10.226;2023-05-29T06:07:34;10.20;99.90
4725;DHT22;2376;53.544;10.226;2023-05-29T06:10:02;10.40;99.90
4725;DHT22;2376;53.544;10.226;2023-05-29T06:12:28;10.50;99.90
4725;DHT22;2376;53.544;10.226;2023-05-29T06:14:55;10.50;99.90
4725;DHT22;2376;53.544;10.226;2023-05-29T06:17:22;10.50;99.90
4725;DHT22;2376;53.544;10.226;2023-05-29T06:19:51;10.60;99.90
4725;DHT22;2376;53.544;10.226;2023-05-29T06:22:18;10.50;99.90
4725;DHT22;2376;53.544;10.226;2023-05-29T06:24:44;10.40;99.90
4725;DHT22;2376;53.544;10.226;2023-05-29T06:27:11;10.40;99.90
4725;DHT22;2376;53.544;10.226;2023-05-29T06:29:38;10.50;99.90
4725;DHT22;2376;53.544;10.226;2023-05-29T06:32:05;10.50;99.90
4725;DHT22;2376;53.544;10.226;2023-05-29T06:34:31;10.50;99.90
4725;DHT22;2376;53.544;10.226;2023-05-29T06:36:59;10.50;99.90
4725;DHT22;2376;53.544;10.226;2023-05-29T06:39:26;10.70;99.90
4725;DHT22;2376;53.544;10.226;2023-05-29T06:41:53;10.70;99.90
4725;DHT22;2376;53.544;10.226;2023-05-29T06:44:20;10.70;99.90
4725;DHT22;2376;53.544;10.226;2023-05-29T06:46:46;10.80;99.90
4725;DHT22;2376;53.544;10.226;2023-05-29T06:49:13;10.90;99.90
4725;DHT22;2376;53.544;10.226;2023-05-29T06:51:40;11.20;99.90
4725;DHT22;2376;53.544;10.226;2023-05-29T06:54:08;11.20;99.90
4725;DHT22;2376;53.544;10.226;2023-05-29T06:56:35;11.30;99.90
4725;DHT22;2376;53.544;10.226;2023-05-29T06:59:02;11.40;99.90
4725;DHT22;2376;53.544;10.226;2023-05-29T07:01:28;11.60;99.90
4725;DHT22;2376;53.544;10.226;2023-05-29T07:03:55;11.50;99.90
4725;DHT22;2376;53.544;10.226;2023-05-29T07:06:22;11.40;99.90
4725;DHT22;2376;53.544;10.226;2023-05-29T07:08:48;11.40;99.90
4725;DHT22;2376;53.544;10.226;2023-05-29T07:11:17;11.70;99.90
4725;DHT22;2376;53.544;10.226;2023-05-29T07:13:43;12.00;99.90
4725;DHT22;2376;53.544;10.226;2023-05-29T07:16:10;12.30;99.90
4725;DHT22;2376;53.544;10.226;2023-05-29T07:18:37;12.40;99.90
4725;DHT22;2376;53.544;10.226;2023-05-29T07:21:04;12.30;99.90
4725;DHT22;2376;53.544;10.226;2023-05-29T07:23:31;12.20;99.90
4725;DHT22;2376;53.544;10.226;2023-05-29T07:25:58;12.20;99.90
4725;DHT22;2376;53.544;10.226;2023-05-29T07:28:26;12.40;99.90
4725;DHT22;2376;53.544;10.226;2023-05-29T07:30:52;12.70;99.90
4725;DHT22;2376;53.544;10.226;2023-05-29T07:33:19;12.80;99.90
4725;DHT22;2376;53.544;10.226;2023-05-29T07:35:46;13.00;99.90
4725;DHT22;2376;53.544;10.226;2023-05-29T07:38:13;13.10;99.90
4725;DHT22;2376;53.544;10.226;2023-05-29T07:40:39;13.20;99.90
4725;DHT22;2376;53.544;10.226;2023-05-29T07:43:06;13.20;99.90
4725;DHT22;2376;53.544;10.226;2023-05-29T07:45:34;13.30;99.90
4725;DHT22;2376;53.544;10.226;2023-05-29T07:48:01;13.50;99.90
4725;DHT22;2376;53.544;10.226;2023-05-29T07:50:27;13.70;99.90
4725;DHT22;2376;53.544;10.226;2023-05-29T07:52:54;13.70;99.90
4725;DHT22;2376;53.544;10.226;2023-05-29T07:55:21;13.50;99.90
4725;DHT22;2376;53.544;10.226;2023-05-29T07:57:48;13.20;99.90
4725;DHT22;2376;53.544;10.226;2023-05-29T08:00:15;13.00;99.90
4725;DHT22;2376;53.544;10.226;2023-05-29T08:02:43;13.10;99.90
4725;DHT22;2376;53.544;10.226;2023-05-29T08:05:10;13.20;99.90
4725;DHT22;2376;53.544;10.226;2023-05-29T08:07:38;13.40;99.90
4725;DHT22;2376;53.544;10.226;2023-05-29T08:10:05;13.50;99.90
4725;DHT22;2376;53.544;10.226;2023-05-29T08:12:33;13.60;99.90
4725;DHT22;2376;53.544;10.226;2023-05-29T08:15:01;13.70;99.70
4725;DHT22;2376;53.544;10.226;2023-05-29T08:17:27;13.90;98.70
4725;DHT22;2376;53.544;10.226;2023-05-29T08:19:55;14.00;95.60
4725;DHT22;2376;53.544;10.226;2023-05-29T08:22:27;14.00;95.80
4725;DHT22;2376;53.544;10.226;2023-05-29T08:24:54;13.80;98.20
4725;DHT22;2376;53.544;10.226;2023-05-29T08:27:21;14.20;99.50
4725;DHT22;2376;53.544;10.226;2023-05-29T08:29:48;14.30;94.20
4725;DHT22;2376;53.544;10.226;2023-05-29T08:32:14;14.50;96.00
4725;DHT22;2376;53.544;10.226;2023-05-29T08:34:41;14.40;94.50
4725;DHT22;2376;53.544;10.226;2023-05-29T08:37:12;14.80;94.50
4725;DHT22;2376;53.544;10.226;2023-05-29T08:39:39;14.60;93.80
4725;DHT22;2376;53.544;10.226;2023-05-29T08:42:09;14.60;94.60
4725;DHT22;2376;53.544;10.226;2023-05-29T08:44:39;14.70;93.50
4725;DHT22;2376;53.544;10.226;2023-05-29T08:47:07;14.70;95.80
4725;DHT22;2376;53.544;10.226;2023-05-29T08:49:40;14.30;97.10
4725;DHT22;2376;53.544;10.226;2023-05-29T08:52:11;14.50;97.40
4725;DHT22;2376;53.544;10.226;2023-05-29T08:54:40;14.90;97.70
4725;DHT22;2376;53.544;10.226;2023-05-29T08:57:06;15.20;87.80
4725;DHT22;2376;53.544;10.226;2023-05-29T08:59:33;15.10;78.70
4725;DHT22;2376;53.544;10.226;2023-05-29T09:02:01;15.20;81.60
4725;DHT22;2376;53.544;10.226;2023-05-29T09:04:28;15.30;81.60
4725;DHT22;2376;53.544;10.226;2023-05-29T09:06:56;15.10;84.60
4725;DHT22;2376;53.544;10.226;2023-05-29T09:09:24;15.20;84.70
4725;DHT22;2376;53.544;10.226;2023-05-29T09:11:53;15.30;79.60
4725;DHT22;2376;53.544;10.226;2023-05-29T09:14:34;15.60;82.70
4725;DHT22;2376;53.544;10.226;2023-05-29T09:17:02;15.50;76.80
4725;DHT22;2376;53.544;10.226;2023-05-29T09:19:29;15.80;81.80
4725;DHT22;2376;53.544;10.226;2023-05-29T09:22:03;15.90;75.30
4725;DHT22;2376;53.544;10.226;2023-05-29T09:24:31;15.90;76.40
4725;DHT22;2376;53.544;10.226;2023-05-29T09:27:00;15.90;80.40
4725;DHT22;2376;53.544;10.226;2023-05-29T09:29:30;16.30;81.40
4725;DHT22;2376;53.544;10.226;2023-05-29T09:31:58;16.50;76.80
4725;DHT22;2376;53.544;10.226;2023-05-29T09:34:24;16.10;72.40
4725;DHT22;2376;53.544;10.226;2023-05-29T09:36:52;15.80;72.10
4725;DHT22;2376;53.544;10.226;2023-05-29T09:39:19;16.20;74.10
4725;DHT22;2376;53.544;10.226;2023-05-29T09:41:46;16.10;74.40
4725;DHT22;2376;53.544;10.226;2023-05-29T09:44:15;16.20;71.20
4725;DHT22;2376;53.544;10.226;2023-05-29T09:46:42;16.40;70.50
4725;DHT22;2376;53.544;10.226;2023-05-29T09:49:11;16.20;69.10
4725;DHT22;2376;53.544;10.226;2023-05-29T09:51:38;16.10;69.70
4725;DHT22;2376;53.544;10.226;2023-05-29T09:54:15;16.00;71.80
4725;DHT22;2376;53.544;10.226;2023-05-29T09:56:42;16.20;73.40
4725;DHT22;2376;53.544;10.226;2023-05-29T09:59:11;16.60;74.30
4725;DHT22;2376;53.544;10.226;2023-05-29T10:01:40;16.70;65.00
4725;DHT22;2376;53.544;10.226;2023-05-29T10:04:09;16.60;63.70
4725;DHT22;2376;53.544;10.226;2023-05-29T10:06:37;16.70;65.20
4725;DHT22;2376;53.544;10.226;2023-05-29T10:09:05;17.00;60.70
4725;DHT22;2376;53.544;10.226;2023-05-29T10:11:35;16.60;60.60
4725;DHT22;2376;53.544;10.226;2023-05-29T10:14:05;16.60;61.80
4725;DHT22;2376;53.544;10.226;2023-05-29T10:16:34;16.60;59.80
4725;DHT22;2376;53.544;10.226;2023-05-29T10:19:06;16.70;59.90
4725;DHT22;2376;53.544;10.226;2023-05-29T10:21:40;16.80;62.40
4725;DHT22;2376;53.544;10.226;2023-05-29T10:24:07;17.20;63.10
4725;DHT22;2376;53.544;10.226;2023-05-29T10:26:38;17.60;62.00
4725;DHT22;2376;53.544;10.226;2023-05-29T10:29:10;17.50;58.50
4725;DHT22;2376;53.544;10.226;2023-05-29T10:31:44;17.50;57.10
4725;DHT22;2376;53.544;10.226;2023-05-29T10:34:23;17.60;57.30
4725;DHT22;2376;53.544;10.226;2023-05-29T10:37:00;17.50;56.80
4725;DHT22;2376;53.544;10.226;2023-05-29T10:39:28;17.10;56.00
4725;DHT22;2376;53.544;10.226;2023-05-29T10:41:55;17.40;56.70
4725;DHT22;2376;53.544;10.226;2023-05-29T10:44:39;17.20;57.20
4725;DHT22;2376;53.544;10.226;2023-05-29T10:47:09;17.10;58.60
4725;DHT22;2376;53.544;10.226;2023-05-29T10:49:39;17.20;57.90
4725;DHT22;2376;53.544;10.226;2023-05-29T10:52:05;17.50;56.60
4725;DHT22;2376;53.544;10.226;2023-05-29T10:54:51;17.30;54.70
4725;DHT22;2376;53.544;10.226;2023-05-29T10:57:21;17.60;56.10
4725;DHT22;2376;53.544;10.226;2023-05-29T10:59:47;17.80;54.80
4725;DHT22;2376;53.544;10.226;2023-05-29T11:02:18;17.70;53.10
4725;DHT22;2376;53.544;10.226;2023-05-29T11:05:04;17.40;54.60
4725;DHT22;2376;53.544;10.226;2023-05-29T11:07:35;17.40;56.00
4725;DHT22;2376;53.544;10.226;2023-05-29T11:10:12;17.40;55.90
4725;DHT22;2376;53.544;10.226;2023-05-29T11:12:57;17.50;56.90
4725;DHT22;2376;53.544;10.226;2023-05-29T11:15:24;17.80;53.60
4725;DHT22;2376;53.544;10.226;2023-05-29T11:17:52;18.00;52.00
4725;DHT22;2376;53.544;10.226;2023-05-29T11:20:28;18.50;52.00
4725;DHT22;2376;53.544;10.226;2023-05-29T11:23:03;18.70;51.30
4725;DHT22;2376;53.544;10.226;2023-05-29T11:25:34;18.80;51.80
4725;DHT22;2376;53.544;10.226;2023-05-29T11:28:01;18.60;52.20
4725;DHT22;2376;53.544;10.226;2023-05-29T11:30:41;18.60;51.60
4725;DHT22;2376;53.544;10.226;2023-05-29T11:33:09;18.20;52.00
4725;DHT22;2376;53.544;10.226;2023-05-29T11:35:39;18.50;52.00
4725;DHT22;2376;53.544;10.226;2023-05-29T11:38:06;18.50;53.10
4725;DHT22;2376;53.544;10.226;2023-05-29T11:40:35;18.50;51.80
4725;DHT22;2376;53.544;10.226;2023-05-29T11:43:03;18.40;52.40
4725;DHT22;2376;53.544;10.226;2023-05-29T11:45:32;18.50;53.30
4725;DHT22;2376;53.544;10.226;2023-05-29T11:48:01;18.30;53.10
4725;DHT22;2376;53.544;10.226;2023-05-29T11:50:29;18.40;52.50
4725;DHT22;2376;53.544;10.226;2023-05-29T11:52:58;18.60;53.00
4725;DHT22;2376;53.544;10.226;2023-05-29T11:55:26;18.90;54.50
4725;DHT22;2376;53.544;10.226;2023-05-29T11:57:56;19.40;53.40
4725;DHT22;2376;53.544;10.226;2023-05-29T12:00:24;19.50;51.50
4725;DHT22;2376;53.544;10.226;2023-05-29T12:02:51;19.70;51.40
4725;DHT22;2376;53.544;10.226;2023-05-29T12:05:18;19.80;51.60
4725;DHT22;2376;53.544;10.226;2023-05-29T12:07:48;20.10;51.60
4725;DHT22;2376;53.544;10.226;2023-05-29T12:10:17;20.10;51.50
4725;DHT22;2376;53.544;10.226;2023-05-29T12:12:50;20.20;49.80
4725;DHT22;2376;53.544;10.226;2023-05-29T12:15:17;20.40;50.60
4725;DHT22;2376;53.544;10.226;2023-05-29T12:17:44;20.30;49.00
4725;DHT22;2376;53.544;10.226;2023-05-29T12:20:12;20.20;50.00
4725;DHT22;2376;53.544;10.226;2023-05-29T12:22:41;20.00;48.30
4725;DHT22;2376;53.544;10.226;2023-05-29T12:25:10;20.00;50.30
4725;DHT22;2376;53.544;10.226;2023-05-29T12:27:40;20.10;48.90
4725;DHT22;2376;53.544;10.226;2023-05-29T12:30:13;20.30;48.90
4725;DHT22;2376;53.544;10.226;2023-05-29T12:32:42;20.40;45.80
4725;DHT22;2376;53.544;10.226;2023-05-29T12:35:13;20.50;47.00
4725;DHT22;2376;53.544;10.226;2023-05-29T12:37:44;20.70;46.30
4725;DHT22;2376;53.544;10.226;2023-05-29T12:40:19;20.70;45.70
4725;DHT22;2376;53.544;10.226;2023-05-29T12:42:48;20.50;47.80
4725;DHT22;2376;53.544;10.226;2023-05-29T12:45:17;20.30;46.50
4725;DHT22;2376;53.544;10.226;2023-05-29T12:47:51;20.10;47.50
4725;DHT22;2376;53.544;10.226;2023-05-29T12:50:25;20.30;46.30
4725;DHT22;2376;53.544;10.226;2023-05-29T12:52:56;20.20;46.80
4725;DHT22;2376;53.544;10.226;2023-05-29T12:55:23;20.10;44.80
4725;DHT22;2376;53.544;10.226;2023-05-29T12:57:51;20.10;43.80
4725;DHT22;2376;53.544;10.226;2023-05-29T13:00:19;20.10;43.70
4725;DHT22;2376;53.544;10.226;2023-05-29T13:02:46;20.40;43.20
4725;DHT22;2376;53.544;10.226;2023-05-29T13:05:13;20.40;40.00
4725;DHT22;2376;53.544;10.226;2023-05-29T13:07:41;20.50;41.00
4725;DHT22;2376;53.544;10.226;2023-05-29T13:10:08;20.60;43.90
4725;DHT22;2376;53.544;10.226;2023-05-29T13:12:35;20.90;41.30
4725;DHT22;2376;53.544;10.226;2023-05-29T13:15:04;20.90;39.90
4725;DHT22;2376;53.544;10.226;2023-05-29T13:17:31;20.80;40.30
4725;DHT22;2376;53.544;10.226;2023-05-29T13:19:57;20.60;42.10
4725;DHT22;2376;53.544;10.226;2023-05-29T13:22:24;20.30;42.30
4725;DHT22;2376;53.544;10.226;2023-05-29T13:24:56;20.30;43.60
4725;DHT22;2376;53.544;10.226;2023-05-29T13:27:22;20.70;43.40
4725;DHT22;2376;53.544;10.226;2023-05-29T13:29:49;20.80;43.60
4725;DHT22;2376;53.544;10.226;2023-05-29T13:32:17;20.60;42.90
4725;DHT22;2376;53.544;10.226;2023-05-29T13:34:44;20.70;43.40
4725;DHT22;2376;53.544;10.226;2023-05-29T13:37:10;21.00;43.30
4725;DHT22;2376;53.544;10.226;2023-05-29T13:39:37;20.80;43.20
4725;DHT22;2376;53.544;10.226;2023-05-29T13:42:04;21.00;43.70
4725;DHT22;2376;53.544;10.226;2023-05-29T13:44:32;21.30;41.90
4725;DHT22;2376;53.544;10.226;2023-05-29T13:46:58;21.30;40.70
4725;DHT22;2376;53.544;10.226;2023-05-29T13:49:27;21.20;42.10
4725;DHT22;2376;53.544;10.226;2023-05-29T13:51:53;21.10;42.60
4725;DHT22;2376;53.544;10.226;2023-05-29T13:54:20;21.30;43.50
4725;DHT22;2376;53.544;10.226;2023-05-29T13:56:47;21.60;42.80
4725;DHT22;2376;53.544;10.226;2023-05-29T13:59:14;22.00;42.90
4725;DHT22;2376;53.544;10.226;2023-05-29T14:01:41;21.90;42.50
4725;DHT22;2376;53.544;10.226;2023-05-29T14:04:07;22.30;42.60
4725;DHT22;2376;53.544;10.226;2023-05-29T14:06:35;22.20;38.70
4725;DHT22;2376;53.544;10.226;2023-05-29T14:09:03;21.90;38.50
4725;DHT22;2376;53.544;10.226;2023-05-29T14:11:30;22.00;39.90
4725;DHT22;2376;53.544;10.226;2023-05-29T14:14:00;22.10;39.20
4725;DHT22;2376;53.544;10.226;2023-05-29T14:16:27;22.30;40.10
4725;DHT22;2376;53.544;10.226;2023-05-29T14:18:55;22.40;38.90
4725;DHT22;2376;53.544;10.226;2023-05-29T14:21:22;22.10;38.90
4725;DHT22;2376;53.544;10.226;2023-05-29T14:23:49;21.90;40.90
4725;DHT22;2376;53.544;10.226;2023-05-29T14:26:16;22.00;40.30
4725;DHT22;2376;53.544;10.226;2023-05-29T14:28:43;22.00;40.30
4725;DHT22;2376;53.544;10.226;2023-05-29T14:31:10;22.00;39.90
4725;DHT22;2376;53.544;10.226;2023-05-29T14:33:37;22.30;39.20
4725;DHT22;2376;53.544;10.226;2023-05-29T14:36:04;22.40;37.20
4725;DHT22;2376;53.544;10.226;2023-05-29T14:38:30;22.50;37.50
4725;DHT22;2376;53.544;10.226;2023-05-29T14:40:58;22.60;37.10
4725;DHT22;2376;53.544;10.226;2023-05-29T14:43:25;22.50;34.80
4725;DHT22;2376;53.544;10.226;2023-05-29T14:45:52;22.90;36.20
4725;DHT22;2376;53.544;10.226;2023-05-29T14:48:18;22.40;35.80
4725;DHT22;2376;53.544;10.226;2023-05-29T14:50:46;22.30;35.60
4725;DHT22;2376;53.544;10.226;2023-05-29T14:53:13;22.30;35.00
4725;DHT22;2376;53.544;10.226;2023-05-29T14:55:39;22.70;35.90
4725;DHT22;2376;53.544;10.226;2023-05-29T14:58:07;22.90;34.70
4725;DHT22;2376;53.544;10.226;2023-05-29T15:00:34;22.80;34.50
4725;DHT22;2376;53.544;10.226;2023-05-29T15:03:01;22.90;34.60
4725;DHT22;2376;53.544;10.226;2023-05-29T15:05:28;22.90;34.10
4725;DHT22;2376;53.544;10.226;2023-05-29T15:07:55;22.90;35.00
4725;DHT22;2376;53.544;10.226;2023-05-29T15:10:22;22.80;33.90
4725;DHT22;2376;53.544;10.226;2023-05-29T15:12:50;23.20;35.20
4725;DHT22;2376;53.544;10.226;2023-05-29T15:15:23;23.70;34.60
4725;DHT22;2376;53.544;10.226;2023-05-29T15:17:50;23.80;34.40
4725;DHT22;2376;53.544;10.226;2023-05-29T15:20:19;23.00;34.10
4725;DHT22;2376;53.544;10.226;2023-05-29T15:22:46;23.00;34.20
4725;DHT22;2376;53.544;10.226;2023-05-29T15:25:13;23.10;34.80
4725;DHT22;2376;53.544;10.226;2023-05-29T15:27:40;23.20;34.20
4725;DHT22;2376;53.544;10.226;2023-05-29T15:30:10;23.20;33.60
4725;DHT22;2376;53.544;10.226;2023-05-29T15:32:40;23.60;33.90
4725;DHT22;2376;53.544;10.226;2023-05-29T15:35:07;24.00;32.50
4725;DHT22;2376;53.544;10.226;2023-05-29T15:37:33;24.00;32.60
4725;DHT22;2376;53.544;10.226;2023-05-29T15:40:01;24.20;32.30
4725;DHT22;2376;53.544;10.226;2023-05-29T15:42:28;24.20;32.20
4725;DHT22;2376;53.544;10.226;2023-05-29T15:44:55;23.90;32.50
4725;DHT22;2376;53.544;10.226;2023-05-29T15:47:21;24.50;32.70
4725;DHT22;2376;53.544;10.226;2023-05-29T15:49:50;23.70;33.10
4725;DHT22;2376;53.544;10.226;2023-05-29T15:52:17;23.70;33.40
4725;DHT22;2376;53.544;10.226;2023-05-29T15:54:44;23.60;34.30